sensor_id;sensor_type;location;lat;lon;timestamp;pressure;altitude;pressure_sealevel;temperature;humidity
14882;BME280;7533;51.278;12.588;2022-12-18T00:04:18;101634.63;;;21.24;58.88
14882;BME280;7533;51.278;12.588;2022-12-18T00:09:23;101630.84;;;21.28;58.41
14882;BME280;7533;51.278;12.588;2022-12-18T00:14:33;101628.44;;;21.22;58.77
14882;BME280;7533;51.278;12.588;2022-12-18T00:19:36;101638.38;;;21.20;58.79
14882;BME280;7533;51.278;12.588;2022-12-18T00:24:39;101642.78;;;21.22;58.85
14882;BME280;7533;51.278;12.588;2022-12-18T00:29:44;101642.81;;;21.21;59.13
14882;BME280;7533;51.278;12.588;2022-12-18T00:34:47;101651.16;;;21.16;58.93
14882;BME280;7533;51.278;12.588;2022-12-18T00:39:49;101644.84;;;21.16;58.82
14882;BME280;7533;51.278;12.588;2022-12-18T00:44:55;101643.00;;;21.18;58.92
14882;BME280;7533;51.278;12.588;2022-12-18T00:49:58;101640.38;;;21.16;59.13
14882;BME280;7533;51.278;12.588;2022-12-18T00:55:00;101645.75;;;21.16;59.05
14882;BME280;7533;51.278;12.588;2022-12-18T01:00:11;101649.38;;;21.15;59.08
14882;BME280;7533;51.278;12.588;2022-12-18T01:05:15;101650.13;;;21.19;59.11
14882;BME280;7533;51.278;12.588;2022-12-18T01:10:18;101653.09;;;21.12;59.15
14882;BME280;7533;51.278;12.588;2022-12-18T01:15:22;101653.69;;;21.19;58.91
14882;BME280;7533;51.278;12.588;2022-12-18T01:20:25;101660.38;;;21.10;59.00
14882;BME280;7533;51.278;12.588;2022-12-18T01:25:28;101663.19;;;21.07;59.17
14882;BME280;7533;51.278;12.588;2022-12-18T01:30:32;101667.16;;;20.99;59.24
14882;BME280;7533;51.278;12.588;2022-12-18T01:35:40;101670.75;;;20.99;59.37
14882;BME280;7533;51.278;12.588;2022-12-18T01:40:43;101669.16;;;20.95;59.62
14882;BME280;7533;51.278;12.588;2022-12-18T01:45:47;101680.88;;;20.94;59.57
14882;BME280;7533;51.278;12.588;2022-12-18T01:50:50;101689.06;;;20.91;59.69
14882;BME280;7533;51.278;12.588;2022-12-18T01:55:55;101691.34;;;20.80;59.96
14882;BME280;7533;51.278;12.588;2022-12-18T02:01:00;101693.16;;;20.79;60.05
14882;BME280;7533;51.278;12.588;2022-12-18T02:06:11;101705.84;;;20.77;60.09
14882;BME280;7533;51.278;12.588;2022-12-18T02:11:20;101701.41;;;20.76;60.28
14882;BME280;7533;51.278;12.588;2022-12-18T02:16:36;101692.41;;;20.76;60.41
14882;BME280;7533;51.278;12.588;2022-12-18T02:21:49;101692.66;;;20.71;60.31
14882;BME280;7533;51.278;12.588;2022-12-18T02:26:58;101700.16;;;20.63;60.38
14882;BME280;7533;51.278;12.588;2022-12-18T02:32:09;101708.44;;;20.58;60.71
14882;BME280;7533;51.278;12.588;2022-12-18T02:37:16;101706.56;;;20.60;60.63
14882;BME280;7533;51.278;12.588;2022-12-18T02:42:24;101686.09;;;20.56;60.59
14882;BME280;7533;51.278;12.588;2022-12-18T02:47:31;101707.63;;;20.56;60.86
14882;BME280;7533;51.278;12.588;2022-12-18T02:52:47;101699.66;;;20.53;60.74
14882;BME280;7533;51.278;12.588;2022-12-18T02:57:57;101693.22;;;20.57;60.72
14882;BME280;7533;51.278;12.588;2022-12-18T03:03:13;101700.78;;;20.49;61.07
14882;BME280;7533;51.278;12.588;2022-12-18T03:08:19;101698.94;;;20.50;60.87
14882;BME280;7533;51.278;12.588;2022-12-18T03:13:28;101702.59;;;20.49;60.94
14882;BME280;7533;51.278;12.588;2022-12-18T03:18:37;101711.75;;;20.43;60.97
14882;BME280;7533;51.278;12.588;2022-12-18T03:23:44;101719.94;;;20.40;61.13
14882;BME280;7533;51.278;12.588;2022-12-18T03:28:53;101720.81;;;20.41;61.22
14882;BME280;7533;51.278;12.588;2022-12-18T03:33:59;101728.81;;;20.42;61.10
14882;BME280;7533;51.278;12.588;2022-12-18T03:39:12;101737.13;;;20.36;61.22
14882;BME280;7533;51.278;12.588;2022-12-18T03:44:28;101740.69;;;20.37;61.30
14882;BME280;7533;51.278;12.588;2022-12-18T03:49:36;101736.44;;;20.31;61.44
14882;BME280;7533;51.278;12.588;2022-12-18T03:54:42;101733.66;;;20.34;61.39
14882;BME280;7533;51.278;12.588;2022-12-18T03:59:55;101732.88;;;20.30;61.25
14882;BME280;7533;51.278;12.588;2022-12-18T04:05:05;101720.28;;;20.32;61.38
14882;BME280;7533;51.278;12.588;2022-12-18T04:10:13;101723.16;;;20.28;61.29
14882;BME280;7533;51.278;12.588;2022-12-18T04:15:19;101726.78;;;20.27;61.27
14882;BME280;7533;51.278;12.588;2022-12-18T04:20:21;101730.34;;;20.27;61.45
14882;BME280;7533;51.278;12.588;2022-12-18T04:25:24;101731.31;;;20.25;61.43
14882;BME280;7533;51.278;12.588;2022-12-18T04:30:39;101721.44;;;20.25;61.44
14882;BME280;7533;51.278;12.588;2022-12-18T04:35:43;101715.34;;;20.22;61.47
14882;BME280;7533;51.278;12.588;2022-12-18T04:40:47;101725.03;;;20.26;61.66
14882;BME280;7533;51.278;12.588;2022-12-18T04:46:03;101722.47;;;20.23;61.57
14882;BME280;7533;51.278;12.588;2022-12-18T04:51:06;101719.78;;;20.23;61.55
14882;BME280;7533;51.278;12.588;2022-12-18T04:56:11;101712.84;;;20.17;61.92
14882;BME280;7533;51.278;12.588;2022-12-18T05:01:17;101711.97;;;20.17;61.73
14882;BME280;7533;51.278;12.588;2022-12-18T05:06:20;101720.91;;;20.17;61.71
14882;BME280;7533;51.278;12.588;2022-12-18T05:11:23;101725.47;;;20.15;61.84
14882;BME280;7533;51.278;12.588;2022-12-18T05:16:27;101720.91;;;20.17;61.57
14882;BME280;7533;51.278;12.588;2022-12-18T05:21:30;101723.59;;;20.17;61.61
14882;BME280;7533;51.278;12.588;2022-12-18T05:26:33;101711.97;;;20.17;61.52
14882;BME280;7533;51.278;12.588;2022-12-18T05:31:37;101720.09;;;20.15;61.62
14882;BME280;7533;51.278;12.588;2022-12-18T05:36:41;101726.47;;;20.13;61.66
14882;BME280;7533;51.278;12.588;2022-12-18T05:41:45;101732.66;;;20.15;61.44
14882;BME280;7533;51.278;12.588;2022-12-18T05:46:49;101738.34;;;20.07;61.77
14882;BME280;7533;51.278;12.588;2022-12-18T05:51:52;101741.72;;;20.12;61.51
14882;BME280;7533;51.278;12.588;2022-12-18T05:56:54;101746.28;;;20.10;61.51
14882;BME280;7533;51.278;12.588;2022-12-18T06:01:59;101758.91;;;20.08;61.53
14882;BME280;7533;51.278;12.588;2022-12-18T06:07:03;101756.22;;;20.08;61.58
14882;BME280;7533;51.278;12.588;2022-12-18T06:12:06;101772.34;;;20.08;62.00
14882;BME280;7533;51.278;12.588;2022-12-18T06:17:10;101775.09;;;20.06;61.96
14882;BME280;7533;51.278;12.588;2022-12-18T06:22:13;101770.47;;;20.10;61.84
14882;BME280;7533;51.278;12.588;2022-12-18T06:27:16;101779.34;;;20.12;61.72
14882;BME280;7533;51.278;12.588;2022-12-18T06:32:20;101786.63;;;20.10;61.69
14882;BME280;7533;51.278;12.588;2022-12-18T06:37:23;101785.06;;;20.03;61.90
14882;BME280;7533;51.278;12.588;2022-12-18T06:42:28;101794.84;;;20.05;62.03
14882;BME280;7533;51.278;12.588;2022-12-18T06:47:32;101789.66;;;20.01;61.82
14882;BME280;7533;51.278;12.588;2022-12-18T06:52:35;101781.41;;;20.05;61.77
14882;BME280;7533;51.278;12.588;2022-12-18T06:57:38;101780.59;;;20.03;61.77
14882;BME280;7533;51.278;12.588;2022-12-18T07:02:42;101788.72;;;20.02;61.75
14882;BME280;7533;51.278;12.588;2022-12-18T07:07:45;101793.22;;;20.01;61.79
14882;BME280;7533;51.278;12.588;2022-12-18T07:12:48;101790.66;;;19.98;61.87
14882;BME280;7533;51.278;12.588;2022-12-18T07:17:52;101790.66;;;19.98;61.78
14882;BME280;7533;51.278;12.588;2022-12-18T07:22:55;101798.66;;;20.00;61.69
14882;BME280;7533;51.278;12.588;2022-12-18T07:27:57;101790.59;;;20.00;61.70
14882;BME280;7533;51.278;12.588;2022-12-18T07:33:02;101807.66;;;19.99;61.68
14882;BME280;7533;51.278;12.588;2022-12-18T07:38:05;101808.53;;;19.99;61.77
14882;BME280;7533;51.278;12.588;2022-12-18T07:43:07;101799.63;;;19.97;61.87
14882;BME280;7533;51.278;12.588;2022-12-18T07:48:11;101797.84;;;19.98;61.76
14882;BME280;7533;51.278;12.588;2022-12-18T07:53:15;101807.59;;;20.00;61.65
14882;BME280;7533;51.278;12.588;2022-12-18T07:58:17;101822.84;;;20.00;61.69
14882;BME280;7533;51.278;12.588;2022-12-18T08:03:22;101830.78;;;20.03;61.88
14882;BME280;7533;51.278;12.588;2022-12-18T08:08:25;101844.47;;;20.20;61.91
14882;BME280;7533;51.278;12.588;2022-12-18T08:13:28;101852.78;;;20.36;61.46
14882;BME280;7533;51.278;12.588;2022-12-18T08:18:33;101846.47;;;20.60;60.75
14882;BME280;7533;51.278;12.588;2022-12-18T08:23:36;101842.63;;;20.88;60.34
14882;BME280;7533;51.278;12.588;2022-12-18T08:28:43;101845.13;;;21.13;60.04
14882;BME280;7533;51.278;12.588;2022-12-18T08:33:50;101844.31;;;21.33;59.66
14882;BME280;7533;51.278;12.588;2022-12-18T08:38:54;101842.81;;;21.46;59.49
14882;BME280;7533;51.278;12.588;2022-12-18T08:43:57;101848.66;;;21.56;59.71
14882;BME280;7533;51.278;12.588;2022-12-18T08:49:18;101859.84;;;21.67;59.32
14882;BME280;7533;51.278;12.588;2022-12-18T08:54:21;101853.13;;;21.76;59.23
14882;BME280;7533;51.278;12.588;2022-12-18T08:59:24;101851.00;;;21.84;58.92
14882;BME280;7533;51.278;12.588;2022-12-18T09:04:28;101857.69;;;21.94;58.65
14882;BME280;7533;51.278;12.588;2022-12-18T09:09:32;101856.50;;;22.00;58.77
14882;BME280;7533;51.278;12.588;2022-12-18T09:14:35;101865.13;;;22.08;58.53
14882;BME280;7533;51.278;12.588;2022-12-18T09:19:39;101873.06;;;22.12;58.45
14882;BME280;7533;51.278;12.588;2022-12-18T09:24:42;101859.28;;;22.18;58.24
14882;BME280;7533;51.278;12.588;2022-12-18T09:29:46;101855.31;;;22.26;57.79
14882;BME280;7533;51.278;12.588;2022-12-18T09:34:50;101861.25;;;22.34;57.82
14882;BME280;7533;51.278;12.588;2022-12-18T09:39:53;101847.50;;;22.38;57.52
14882;BME280;7533;51.278;12.588;2022-12-18T09:44:56;101835.63;;;22.42;57.54
14882;BME280;7533;51.278;12.588;2022-12-18T09:50:02;101828.09;;;22.49;57.42
14882;BME280;7533;51.278;12.588;2022-12-18T09:55:13;101815.25;;;22.54;57.28
14882;BME280;7533;51.278;12.588;2022-12-18T10:00:19;101815.44;;;22.51;57.06
14882;BME280;7533;51.278;12.588;2022-12-18T10:05:33;101800.75;;;22.57;56.92
14882;BME280;7533;51.278;12.588;2022-12-18T10:10:42;101803.06;;;22.64;56.93
14882;BME280;7533;51.278;12.588;2022-12-18T10:15:58;101782.09;;;22.69;57.05
14882;BME280;7533;51.278;12.588;2022-12-18T10:21:10;101780.94;;;22.75;56.97
14882;BME280;7533;51.278;12.588;2022-12-18T10:26:14;101779.81;;;22.79;56.92
14882;BME280;7533;51.278;12.588;2022-12-18T10:31:20;101783.06;;;22.86;56.82
14882;BME280;7533;51.278;12.588;2022-12-18T10:36:26;101771.91;;;22.93;56.93
14882;BME280;7533;51.278;12.588;2022-12-18T10:41:29;101767.69;;;22.88;56.92
14882;BME280;7533;51.278;12.588;2022-12-18T10:46:33;101759.03;;;22.99;56.69
14882;BME280;7533;51.278;12.588;2022-12-18T10:51:38;101751.72;;;23.18;56.48
14882;BME280;7533;51.278;12.588;2022-12-18T10:56:41;101754.00;;;23.26;56.36
14882;BME280;7533;51.278;12.588;2022-12-18T11:01:47;101750.53;;;23.23;56.39
14882;BME280;7533;51.278;12.588;2022-12-18T11:06:57;101746.13;;;23.21;56.49
14882;BME280;7533;51.278;12.588;2022-12-18T11:12:03;101753.22;;;23.23;55.67
14882;BME280;7533;51.278;12.588;2022-12-18T11:17:18;101750.97;;;23.32;55.73
14882;BME280;7533;51.278;12.588;2022-12-18T11:22:29;101760.41;;;23.40;55.56
14882;BME280;7533;51.278;12.588;2022-12-18T11:27:33;101747.78;;;23.41;55.90
14882;BME280;7533;51.278;12.588;2022-12-18T11:32:37;101744.50;;;23.52;55.88
14882;BME280;7533;51.278;12.588;2022-12-18T11:37:47;101751.38;;;23.57;55.63
14882;BME280;7533;51.278;12.588;2022-12-18T11:42:56;101755.78;;;23.42;55.48
14882;BME280;7533;51.278;12.588;2022-12-18T11:48:05;101769.94;;;23.47;55.57
14882;BME280;7533;51.278;12.588;2022-12-18T11:53:13;101774.75;;;23.58;55.46
14882;BME280;7533;51.278;12.588;2022-12-18T11:58:27;101770.97;;;23.45;54.33
14882;BME280;7533;51.278;12.588;2022-12-18T12:09:13;101770.50;;;19.15;33.69
14882;BME280;7533;51.278;12.588;2022-12-18T12:14:39;101770.97;;;17.31;34.05
14882;BME280;7533;51.278;12.588;2022-12-18T12:19:50;101763.03;;;19.46;39.55
14882;BME280;7533;51.278;12.588;2022-12-18T12:25:10;101749.84;;;20.76;40.11
14882;BME280;7533;51.278;12.588;2022-12-18T12:30:20;101736.72;;;21.49;41.35
14882;BME280;7533;51.278;12.588;2022-12-18T12:35:31;101721.94;;;21.95;42.85
14882;BME280;7533;51.278;12.588;2022-12-18T12:40:41;101725.41;;;22.35;43.37
14882;BME280;7533;51.278;12.588;2022-12-18T12:46:00;101715.81;;;22.64;43.84
14882;BME280;7533;51.278;12.588;2022-12-18T12:51:12;101726.22;;;22.71;44.63
14882;BME280;7533;51.278;12.588;2022-12-18T12:56:20;101738.50;;;22.77;45.14
14882;BME280;7533;51.278;12.588;2022-12-18T13:01:30;101720.78;;;22.90;45.82
14882;BME280;7533;51.278;12.588;2022-12-18T13:06:43;101724.84;;;23.15;46.44
14882;BME280;7533;51.278;12.588;2022-12-18T13:11:50;101710.09;;;23.38;46.57
14882;BME280;7533;51.278;12.588;2022-12-18T13:17:30;101689.59;;;23.34;47.04
14882;BME280;7533;51.278;12.588;2022-12-18T13:22:35;101681.69;;;23.31;47.54
14882;BME280;7533;51.278;12.588;2022-12-18T13:27:56;101674.94;;;23.22;48.35
14882;BME280;7533;51.278;12.588;2022-12-18T13:39:31;101678.16;;;23.13;49.87
14882;BME280;7533;51.278;12.588;2022-12-18T13:44:39;101691.28;;;23.03;50.35
14882;BME280;7533;51.278;12.588;2022-12-18T13:49:43;101693.97;;;22.86;50.86
14882;BME280;7533;51.278;12.588;2022-12-18T13:54:50;101687.06;;;22.80;51.23
14882;BME280;7533;51.278;12.588;2022-12-18T13:59:56;101676.06;;;22.67;51.69
14882;BME280;7533;51.278;12.588;2022-12-18T14:04:59;101669.75;;;22.67;51.99
14882;BME280;7533;51.278;12.588;2022-12-18T14:10:02;101658.50;;;22.59;51.96
14882;BME280;7533;51.278;12.588;2022-12-18T14:15:31;101660.47;;;22.55;52.02
14882;BME280;7533;51.278;12.588;2022-12-18T14:20:36;101662.88;;;22.61;52.23
14882;BME280;7533;51.278;12.588;2022-12-18T14:25:48;101664.06;;;22.56;52.79
14882;BME280;7533;51.278;12.588;2022-12-18T14:30:53;101654.31;;;22.53;53.07
14882;BME280;7533;51.278;12.588;2022-12-18T14:35:58;101639.72;;;22.40;53.42
14882;BME280;7533;51.278;12.588;2022-12-18T14:41:04;101653.25;;;22.21;53.85
14882;BME280;7533;51.278;12.588;2022-12-18T14:46:27;101642.47;;;22.38;53.71
14882;BME280;7533;51.278;12.588;2022-12-18T14:51:32;101643.59;;;22.34;53.66
14882;BME280;7533;51.278;12.588;2022-12-18T14:56:43;101634.38;;;22.38;53.78
14882;BME280;7533;51.278;12.588;2022-12-18T15:01:54;101632.56;;;22.39;53.98
14882;BME280;7533;51.278;12.588;2022-12-18T15:07:05;101632.66;;;22.37;53.94
14882;BME280;7533;51.278;12.588;2022-12-18T15:12:24;101628.63;;;22.29;54.19
14882;BME280;7533;51.278;12.588;2022-12-18T15:17:29;101617.66;;;22.32;54.23
14882;BME280;7533;51.278;12.588;2022-12-18T15:22:34;101629.06;;;22.37;54.27
14882;BME280;7533;51.278;12.588;2022-12-18T15:27:38;101642.75;;;22.34;54.29
14882;BME280;7533;51.278;12.588;2022-12-18T15:32:42;101654.94;;;22.41;54.20
14882;BME280;7533;51.278;12.588;2022-12-18T15:37:45;101633.50;;;22.38;54.25
14882;BME280;7533;51.278;12.588;2022-12-18T15:42:48;101638.69;;;22.42;54.16
14882;BME280;7533;51.278;12.588;2022-12-18T15:48:21;101623.59;;;22.38;53.49
14882;BME280;7533;51.278;12.588;2022-12-18T15:53:26;101641.59;;;22.38;53.18
14882;BME280;7533;51.278;12.588;2022-12-18T15:58:30;101629.47;;;22.47;52.99
14882;BME280;7533;51.278;12.588;2022-12-18T16:03:34;101628.06;;;22.39;52.71
14882;BME280;7533;51.278;12.588;2022-12-18T16:08:37;101624.94;;;22.47;52.15
14882;BME280;7533;51.278;12.588;2022-12-18T16:13:42;101608.75;;;22.47;52.29
14882;BME280;7533;51.278;12.588;2022-12-18T16:18:46;101612.41;;;22.46;51.98
14882;BME280;7533;51.278;12.588;2022-12-18T16:23:49;101616.94;;;22.46;51.79
14882;BME280;7533;51.278;12.588;2022-12-18T16:28:51;101586.59;;;22.58;52.00
14882;BME280;7533;51.278;12.588;2022-12-18T16:39:25;101606.47;;;22.57;51.77
14882;BME280;7533;51.278;12.588;2022-12-18T16:44:28;101602.59;;;22.78;52.12
14882;BME280;7533;51.278;12.588;2022-12-18T16:49:31;101600.22;;;22.72;52.39
14882;BME280;7533;51.278;12.588;2022-12-18T16:54:35;101589.38;;;22.74;52.41
14882;BME280;7533;51.278;12.588;2022-12-18T16:59:39;101584.97;;;22.71;52.64
14882;BME280;7533;51.278;12.588;2022-12-18T17:04:43;101571.56;;;22.69;52.62
14882;BME280;7533;51.278;12.588;2022-12-18T17:09:48;101568.81;;;22.54;53.04
14882;BME280;7533;51.278;12.588;2022-12-18T17:14:51;101570.28;;;22.43;53.24
14882;BME280;7533;51.278;12.588;2022-12-18T17:19:54;101553.44;;;22.38;53.40
14882;BME280;7533;51.278;12.588;2022-12-18T17:24:59;101551.63;;;22.39;53.19
14882;BME280;7533;51.278;12.588;2022-12-18T17:30:02;101550.31;;;22.30;53.50
14882;BME280;7533;51.278;12.588;2022-12-18T17:35:06;101547.84;;;22.26;53.54
14882;BME280;7533;51.278;12.588;2022-12-18T17:40:10;101523.81;;;22.21;53.90
14882;BME280;7533;51.278;12.588;2022-12-18T17:45:13;101512.00;;;22.24;53.78
14882;BME280;7533;51.278;12.588;2022-12-18T17:50:16;101506.22;;;22.14;54.15
14882;BME280;7533;51.278;12.588;2022-12-18T17:55:20;101512.69;;;22.27;54.15
14882;BME280;7533;51.278;12.588;2022-12-18T18:00:23;101521.19;;;22.20;54.51
14882;BME280;7533;51.278;12.588;2022-12-18T18:05:26;101536.50;;;22.19;54.65
14882;BME280;7533;51.278;12.588;2022-12-18T18:10:30;101508.66;;;22.18;54.77
14882;BME280;7533;51.278;12.588;2022-12-18T18:15:35;101524.13;;;22.15;54.73
14882;BME280;7533;51.278;12.588;2022-12-18T18:20:40;101518.94;;;22.28;54.84
14882;BME280;7533;51.278;12.588;2022-12-18T18:25:44;101510.13;;;22.41;54.36
14882;BME280;7533;51.278;12.588;2022-12-18T18:30:47;101507.63;;;22.54;54.14
14882;BME280;7533;51.278;12.588;2022-12-18T18:35:50;101503.38;;;22.66;54.06
14882;BME280;7533;51.278;12.588;2022-12-18T18:41:00;101486.06;;;22.54;54.36
14882;BME280;7533;51.278;12.588;2022-12-18T18:46:04;101494.75;;;22.59;54.33
14882;BME280;7533;51.278;12.588;2022-12-18T18:51:10;101485.00;;;22.41;54.75
14882;BME280;7533;51.278;12.588;2022-12-18T18:56:21;101492.03;;;22.43;54.74
14882;BME280;7533;51.278;12.588;2022-12-18T19:01:44;101491.88;;;22.47;54.64
14882;BME280;7533;51.278;12.588;2022-12-18T19:06:47;101474.09;;;22.42;54.77
14882;BME280;7533;51.278;12.588;2022-12-18T19:11:52;101463.41;;;22.41;54.94
14882;BME280;7533;51.278;12.588;2022-12-18T19:17:13;101454.78;;;22.34;55.15
14882;BME280;7533;51.278;12.588;2022-12-18T19:22:16;101453.00;;;22.33;55.09
14882;BME280;7533;51.278;12.588;2022-12-18T19:27:20;101431.13;;;22.39;55.04
14882;BME280;7533;51.278;12.588;2022-12-18T19:32:24;101423.63;;;22.29;55.45
14882;BME280;7533;51.278;12.588;2022-12-18T19:37:27;101418.13;;;22.30;55.38
14882;BME280;7533;51.278;12.588;2022-12-18T19:42:31;101411.88;;;22.30;55.49
14882;BME280;7533;51.278;12.588;2022-12-18T19:47:36;101411.06;;;22.28;55.29
14882;BME280;7533;51.278;12.588;2022-12-18T19:52:39;101413.69;;;22.29;55.50
14882;BME280;7533;51.278;12.588;2022-12-18T19:57:43;101403.78;;;22.30;55.56
14882;BME280;7533;51.278;12.588;2022-12-18T20:02:46;101398.63;;;22.25;55.50
14882;BME280;7533;51.278;12.588;2022-12-18T20:07:49;101404.38;;;22.19;55.69
14882;BME280;7533;51.278;12.588;2022-12-18T20:12:54;101412.13;;;22.25;55.59
14882;BME280;7533;51.278;12.588;2022-12-18T20:17:58;101403.59;;;22.17;55.78
14882;BME280;7533;51.278;12.588;2022-12-18T20:23:00;101411.41;;;22.04;55.97
14882;BME280;7533;51.278;12.588;2022-12-18T20:28:05;101399.00;;;22.02;56.03
14882;BME280;7533;51.278;12.588;2022-12-18T20:33:08;101390.81;;;22.03;55.96
14882;BME280;7533;51.278;12.588;2022-12-18T20:38:11;101390.03;;;22.01;56.13
14882;BME280;7533;51.278;12.588;2022-12-18T20:43:15;101401.44;;;22.06;55.70
14882;BME280;7533;51.278;12.588;2022-12-18T20:48:18;101382.91;;;22.00;56.03
14882;BME280;7533;51.278;12.588;2022-12-18T20:53:27;101392.00;;;21.98;55.94
14882;BME280;7533;51.278;12.588;2022-12-18T20:58:31;101413.66;;;21.96;55.81
14882;BME280;7533;51.278;12.588;2022-12-18T21:03:34;101429.22;;;21.91;55.88
14882;BME280;7533;51.278;12.588;2022-12-18T21:08:38;101426.34;;;21.94;55.88
14882;BME280;7533;51.278;12.588;2022-12-18T21:13:42;101420.41;;;21.87;55.97
14882;BME280;7533;51.278;12.588;2022-12-18T21:18:45;101411.34;;;21.88;55.93
14882;BME280;7533;51.278;12.588;2022-12-18T21:23:48;101397.19;;;21.85;56.15
14882;BME280;7533;51.278;12.588;2022-12-18T21:28:53;101378.78;;;21.93;56.00
14882;BME280;7533;51.278;12.588;2022-12-18T21:33:56;101381.03;;;21.85;55.65
14882;BME280;7533;51.278;12.588;2022-12-18T21:39:03;101382.00;;;21.84;56.06
14882;BME280;7533;51.278;12.588;2022-12-18T21:44:09;101392.13;;;21.79;56.16
14882;BME280;7533;51.278;12.588;2022-12-18T21:49:14;101391.41;;;21.75;56.12
14882;BME280;7533;51.278;12.588;2022-12-18T21:54:18;101386.66;;;21.80;56.02
14882;BME280;7533;51.278;12.588;2022-12-18T21:59:24;101373.91;;;21.84;55.91
14882;BME280;7533;51.278;12.588;2022-12-18T22:04:28;101374.94;;;21.64;52.61
14882;BME280;7533;51.278;12.588;2022-12-18T22:09:31;101365.81;;;21.84;55.12
14882;BME280;7533;51.278;12.588;2022-12-18T22:14:37;101360.75;;;21.78;55.85
14882;BME280;7533;51.278;12.588;2022-12-18T22:19:41;101360.28;;;21.70;56.30
14882;BME280;7533;51.278;12.588;2022-12-18T22:24:44;101343.09;;;21.72;56.38
14882;BME280;7533;51.278;12.588;2022-12-18T22:29:51;101329.53;;;21.74;56.45
14882;BME280;7533;51.278;12.588;2022-12-18T22:35:07;101325.00;;;21.74;56.46
14882;BME280;7533;51.278;12.588;2022-12-18T22:40:18;101320.72;;;21.70;56.59
14882;BME280;7533;51.278;12.588;2022-12-18T22:45:27;101309.59;;;21.76;56.74
14882;BME280;7533;51.278;12.588;2022-12-18T22:50:30;101321.59;;;21.71;56.88
14882;BME280;7533;51.278;12.588;2022-12-18T22:55:34;101328.13;;;21.67;56.86
14882;BME280;7533;51.278;12.588;2022-12-18T23:00:38;101289.34;;;21.69;56.97
14882;BME280;7533;51.278;12.588;2022-12-18T23:05:41;101284.28;;;21.63;57.00
14882;BME280;7533;51.278;12.588;2022-12-18T23:10:45;101252.31;;;21.57;57.41
14882;BME280;7533;51.278;12.588;2022-12-18T23:15:49;101283.44;;;21.62;57.27
14882;BME280;7533;51.278;12.588;2022-12-18T23:20:52;101267.94;;;21.66;57.14
14882;BME280;7533;51.278;12.588;2022-12-18T23:26:00;101282.47;;;21.63;57.16
14882;BME280;7533;51.278;12.588;2022-12-18T23:31:06;101296.06;;;21.78;57.13
14882;BME280;7533;51.278;12.588;2022-12-18T23:36:09;101277.81;;;21.67;57.49
14882;BME280;7533;51.278;12.588;2022-12-18T23:41:14;101257.34;;;21.63;57.79
14882;BME280;7533;51.278;12.588;2022-12-18T23:46:21;101247.88;;;21.72;57.81
14882;BME280;7533;51.278;12.588;2022-12-18T23:51:24;101231.72;;;21.72;57.86
14882;BME280;7533;51.278;12.588;2022-12-18T23:56:28;101216.06;;;21.62;58.14
